DLH6JT EDDF-LKPR
Flight info
| Callsign | DLH6JT |
|---|---|
| Flight time | 0h 47m |
| Altitude | 29000 |
| Route | SULUS7S SULUS Z650 TONSU Z35 ODOMO DCT LOMKI |
| Aircraft | A21N/M-SDE2E3FGHIRWXY/LB1 |
Departure
| Time | 2026-05-04 06:16 |
|---|---|
| Airport | Frankfurt Main Airport (EDDF) |
Arrival
| Time | 2026-05-04 07:03 |
|---|---|
| Airport | Václav Havel Airport Prague (LKPR) |
| Time | Latitude | Longitude | Altitude | Speed | Heading |
|---|---|---|---|---|---|
| 2026-05-04 05:52 | 50.04697 | 8.57095 | 365 ft | 0 kts | 115° |
| 2026-05-04 05:55 | 50.04698 | 8.57095 | 361 ft | 0 kts | 115° |
| 2026-05-04 06:01 | 50.04702 | 8.57082 | 363 ft | 4 kts | 115° |
| 2026-05-04 06:03 | 50.04764 | 8.57013 | 361 ft | 0 kts | 205° |
| 2026-05-04 06:05 | 50.04753 | 8.57005 | 363 ft | 4 kts | 205° |
| 2026-05-04 06:06 | 50.04715 | 8.56978 | 364 ft | 8 kts | 205° |
| 2026-05-04 06:06 | 50.04660 | 8.56939 | 365 ft | 10 kts | 205° |
| 2026-05-04 06:06 | 50.04589 | 8.56904 | 365 ft | 12 kts | 193° |
| 2026-05-04 06:06 | 50.04501 | 8.56872 | 364 ft | 14 kts | 193° |
| 2026-05-04 06:07 | 50.04416 | 8.56845 | 365 ft | 0 kts | 185° |
| 2026-05-04 06:07 | 50.04415 | 8.56845 | 365 ft | 1 kts | 187° |
| 2026-05-04 06:08 | 50.04412 | 8.56802 | 366 ft | 8 kts | 297° |
| 2026-05-04 06:08 | 50.04419 | 8.56690 | 363 ft | 14 kts | 256° |
| 2026-05-04 06:08 | 50.04393 | 8.56583 | 364 ft | 9 kts | 248° |
| 2026-05-04 06:08 | 50.04364 | 8.56458 | 363 ft | 15 kts | 251° |
| 2026-05-04 06:09 | 50.04320 | 8.56272 | 362 ft | 21 kts | 249° |
| 2026-05-04 06:09 | 50.04259 | 8.56029 | 364 ft | 27 kts | 249° |
| 2026-05-04 06:11 | 50.03894 | 8.54497 | 360 ft | 20 kts | 249° |
| 2026-05-04 06:11 | 50.03828 | 8.54300 | 358 ft | 21 kts | 233° |
| 2026-05-04 06:13 | 50.03558 | 8.53226 | 349 ft | 9 kts | 249° |
| 2026-05-04 06:14 | 50.03349 | 8.52593 | 341 ft | 5 kts | 178° |
| 2026-05-04 06:14 | 50.03334 | 8.52594 | 341 ft | 0 kts | 179° |
| 2026-05-04 06:15 | 50.03330 | 8.52594 | 336 ft | 6 kts | 179° |
| 2026-05-04 06:15 | 50.03011 | 8.52597 | 339 ft | 85 kts | 178° |
| 2026-05-04 06:15 | 50.02169 | 8.52606 | 339 ft | 152 kts | 179° |
| 2026-05-04 06:15 | 50.00978 | 8.52617 | 643 ft | 174 kts | 179° |
| 2026-05-04 06:16 | 49.99797 | 8.52635 | 1443 ft | 168 kts | 181° |
| 2026-05-04 06:16 | 49.98575 | 8.52670 | 2021 ft | 181 kts | 181° |
| 2026-05-04 06:16 | 49.97274 | 8.52852 | 2595 ft | 195 kts | 165° |
| 2026-05-04 06:16 | 49.96154 | 8.54120 | 3134 ft | 215 kts | 132° |
| 2026-05-04 06:17 | 49.95357 | 8.56240 | 3558 ft | 239 kts | 118° |
| 2026-05-04 06:17 | 49.94625 | 8.58575 | 4410 ft | 240 kts | 120° |
| 2026-05-04 06:17 | 49.94055 | 8.61052 | 5172 ft | 252 kts | 100° |
| 2026-05-04 06:17 | 49.93892 | 8.63854 | 5717 ft | 269 kts | 95° |
| 2026-05-04 06:18 | 49.93764 | 8.66840 | 6358 ft | 283 kts | 99° |
| 2026-05-04 06:18 | 49.93167 | 8.69700 | 7050 ft | 284 kts | 124° |
| 2026-05-04 06:18 | 49.91832 | 8.71904 | 7828 ft | 281 kts | 146° |
| 2026-05-04 06:20 | 49.83282 | 8.89657 | 11685 ft | 358 kts | 122° |
| 2026-05-04 06:20 | 49.82058 | 8.93043 | 12441 ft | 361 kts | 122° |
| 2026-05-04 06:21 | 49.77044 | 9.06820 | 15320 ft | 374 kts | 122° |
| 2026-05-04 06:21 | 49.75968 | 9.10518 | 15964 ft | 382 kts | 110° |
| 2026-05-04 06:22 | 49.75293 | 9.14469 | 16630 ft | 386 kts | 106° |
| 2026-05-04 06:22 | 49.74669 | 9.18517 | 17285 ft | 388 kts | 106° |
| 2026-05-04 06:25 | 49.68155 | 9.74885 | 23946 ft | 447 kts | 75° |
| 2026-05-04 06:25 | 49.69022 | 9.79523 | 24360 ft | 450 kts | 75° |
| 2026-05-04 06:26 | 49.69885 | 9.84190 | 24776 ft | 453 kts | 75° |
| 2026-05-04 06:26 | 49.70729 | 9.88885 | 25179 ft | 456 kts | 76° |
| 2026-05-04 06:26 | 49.71701 | 9.93589 | 25569 ft | 460 kts | 68° |
| 2026-05-04 06:26 | 49.73174 | 9.97921 | 25959 ft | 462 kts | 57° |
| 2026-05-04 06:27 | 49.80756 | 10.14207 | 27526 ft | 471 kts | 54° |
| 2026-05-04 06:28 | 49.82671 | 10.18355 | 27892 ft | 473 kts | 54° |
| 2026-05-04 06:28 | 49.84582 | 10.22516 | 28275 ft | 475 kts | 54° |
| 2026-05-04 06:28 | 49.86497 | 10.26702 | 28746 ft | 475 kts | 54° |
| 2026-05-04 06:28 | 49.88413 | 10.30892 | 29016 ft | 475 kts | 54° |
| 2026-05-04 06:29 | 49.92232 | 10.39217 | 29042 ft | 473 kts | 54° |
| 2026-05-04 06:29 | 49.96025 | 10.47496 | 29030 ft | 472 kts | 55° |
| 2026-05-04 06:30 | 49.99817 | 10.55831 | 29010 ft | 470 kts | 55° |
| 2026-05-04 06:30 | 50.03506 | 10.64140 | 29020 ft | 468 kts | 59° |
| 2026-05-04 06:31 | 50.04935 | 10.68750 | 29021 ft | 468 kts | 71° |
| 2026-05-04 06:31 | 50.05725 | 10.73575 | 29018 ft | 465 kts | 84° |
| 2026-05-04 06:31 | 50.05860 | 10.78591 | 29020 ft | 463 kts | 96° |
| 2026-05-04 06:31 | 50.05342 | 10.83491 | 29023 ft | 458 kts | 108° |
| 2026-05-04 06:33 | 49.97350 | 11.21042 | 29019 ft | 458 kts | 107° |
| 2026-05-04 06:34 | 49.96649 | 11.30861 | 29023 ft | 463 kts | 95° |
| 2026-05-04 06:34 | 49.96388 | 11.40874 | 29015 ft | 463 kts | 95° |
| 2026-05-04 06:36 | 49.95062 | 11.80702 | 29012 ft | 461 kts | 95° |
| 2026-05-04 06:37 | 49.94702 | 11.90656 | 29005 ft | 461 kts | 94° |
| 2026-05-04 06:37 | 49.94461 | 12.00641 | 29016 ft | 462 kts | 92° |
| 2026-05-04 06:38 | 49.94252 | 12.10639 | 29017 ft | 462 kts | 93° |
| 2026-05-04 06:40 | 49.93277 | 12.50435 | 29015 ft | 463 kts | 93° |
| 2026-05-04 06:40 | 49.92986 | 12.60419 | 29018 ft | 463 kts | 93° |
| 2026-05-04 06:41 | 49.92690 | 12.70374 | 29019 ft | 463 kts | 93° |
| 2026-05-04 06:41 | 49.92378 | 12.80375 | 29024 ft | 463 kts | 93° |
| 2026-05-04 06:42 | 49.92061 | 12.90366 | 29003 ft | 464 kts | 94° |
| 2026-05-04 06:44 | 49.90751 | 13.29215 | 25572 ft | 433 kts | 94° |
| 2026-05-04 06:44 | 49.90584 | 13.33845 | 25006 ft | 427 kts | 94° |
| 2026-05-04 06:44 | 49.90409 | 13.38424 | 24436 ft | 423 kts | 95° |
| 2026-05-04 06:45 | 49.90257 | 13.42967 | 23868 ft | 419 kts | 92° |
| 2026-05-04 06:45 | 49.90552 | 13.47391 | 23255 ft | 416 kts | 76° |
| 2026-05-04 06:45 | 49.91651 | 13.51496 | 22663 ft | 411 kts | 58° |
| 2026-05-04 06:45 | 49.93313 | 13.55064 | 22103 ft | 405 kts | 52° |
| 2026-05-04 06:46 | 49.95061 | 13.58484 | 21535 ft | 401 kts | 51° |
| 2026-05-04 06:46 | 49.96785 | 13.61859 | 21002 ft | 396 kts | 52° |
| 2026-05-04 06:46 | 49.98477 | 13.65237 | 20485 ft | 392 kts | 52° |
| 2026-05-04 06:46 | 50.00135 | 13.68591 | 19976 ft | 390 kts | 53° |
| 2026-05-04 06:48 | 50.08845 | 13.93366 | 16750 ft | 372 kts | 83° |
| 2026-05-04 06:48 | 50.09260 | 13.97351 | 16296 ft | 372 kts | 83° |
| 2026-05-04 06:49 | 50.09694 | 14.01326 | 15858 ft | 372 kts | 83° |
| 2026-05-04 06:50 | 50.12769 | 14.28901 | 12754 ft | 357 kts | 83° |
| 2026-05-04 06:51 | 50.13188 | 14.32683 | 12304 ft | 351 kts | 83° |
| 2026-05-04 06:51 | 50.13558 | 14.36410 | 11867 ft | 343 kts | 88° |
| 2026-05-04 06:51 | 50.13361 | 14.39977 | 11436 ft | 330 kts | 109° |
| 2026-05-04 06:51 | 50.12337 | 14.43140 | 11026 ft | 321 kts | 128° |
| 2026-05-04 06:52 | 50.11012 | 14.45847 | 10703 ft | 313 kts | 131° |
| 2026-05-04 06:52 | 50.09686 | 14.48464 | 10498 ft | 300 kts | 131° |
| 2026-05-04 06:52 | 50.08431 | 14.50978 | 10341 ft | 288 kts | 130° |
| 2026-05-04 06:52 | 50.07223 | 14.53429 | 10085 ft | 282 kts | 130° |
| 2026-05-04 06:53 | 50.06036 | 14.55837 | 9723 ft | 279 kts | 130° |
| 2026-05-04 06:53 | 50.04858 | 14.58237 | 9324 ft | 279 kts | 130° |
| 2026-05-04 06:53 | 50.03673 | 14.60648 | 8941 ft | 280 kts | 129° |
| 2026-05-04 06:53 | 50.02507 | 14.63031 | 8588 ft | 280 kts | 129° |
| 2026-05-04 06:54 | 50.01325 | 14.65441 | 8236 ft | 280 kts | 129° |
| 2026-05-04 06:54 | 50.00142 | 14.67860 | 7880 ft | 280 kts | 129° |
| 2026-05-04 06:54 | 49.98963 | 14.70267 | 7548 ft | 280 kts | 129° |
| 2026-05-04 06:54 | 49.97762 | 14.72646 | 7209 ft | 279 kts | 133° |
| 2026-05-04 06:55 | 49.96217 | 14.74440 | 6846 ft | 278 kts | 158° |
| 2026-05-04 06:55 | 49.94346 | 14.74949 | 6504 ft | 272 kts | 187° |
| 2026-05-04 06:55 | 49.92600 | 14.74159 | 6230 ft | 259 kts | 211° |
| 2026-05-04 06:55 | 49.91175 | 14.72528 | 5946 ft | 250 kts | 226° |
| 2026-05-04 06:56 | 49.90229 | 14.70376 | 5696 ft | 238 kts | 253° |
| 2026-05-04 06:57 | 49.95224 | 14.56626 | 3982 ft | 186 kts | 308° |
| 2026-05-04 06:58 | 49.96007 | 14.55022 | 4034 ft | 186 kts | 308° |
| 2026-05-04 06:58 | 49.96792 | 14.53411 | 4031 ft | 187 kts | 308° |
| 2026-05-04 06:58 | 49.97575 | 14.51804 | 4015 ft | 187 kts | 308° |
| 2026-05-04 06:58 | 49.98348 | 14.50214 | 4012 ft | 187 kts | 308° |
| 2026-05-04 06:59 | 49.99132 | 14.48600 | 4006 ft | 186 kts | 308° |
| 2026-05-04 06:59 | 49.99917 | 14.46988 | 3996 ft | 187 kts | 308° |
| 2026-05-04 06:59 | 50.00697 | 14.45382 | 3897 ft | 183 kts | 308° |
| 2026-05-04 06:59 | 50.01452 | 14.43828 | 3669 ft | 177 kts | 309° |
| 2026-05-04 07:01 | 50.06277 | 14.33891 | 2151 ft | 144 kts | 310° |
| 2026-05-04 07:01 | 50.06878 | 14.32652 | 1952 ft | 142 kts | 310° |
| 2026-05-04 07:02 | 50.07476 | 14.31419 | 1755 ft | 142 kts | 309° |
| 2026-05-04 07:02 | 50.08070 | 14.30195 | 1572 ft | 141 kts | 309° |
| 2026-05-04 07:02 | 50.08663 | 14.28977 | 1414 ft | 141 kts | 308° |
| 2026-05-04 07:02 | 50.09243 | 14.27752 | 1259 ft | 138 kts | 308° |
| 2026-05-04 07:03 | 50.09741 | 14.26732 | 1221 ft | 93 kts | 307° |
| 2026-05-04 07:03 | 50.10012 | 14.26165 | 1202 ft | 51 kts | 308° |
| 2026-05-04 07:03 | 50.10164 | 14.25853 | 1194 ft | 30 kts | 307° |
| 2026-05-04 07:03 | 50.10244 | 14.25714 | 1194 ft | 15 kts | 329° |
| 2026-05-04 07:04 | 50.10348 | 14.25659 | 1191 ft | 17 kts | 351° |
| 2026-05-04 07:04 | 50.10467 | 14.25671 | 1191 ft | 18 kts | 22° |
| 2026-05-04 07:04 | 50.10564 | 14.25741 | 1188 ft | 1 kts | 35° |
| 2026-05-04 07:04 | 50.10577 | 14.25756 | 1189 ft | 3 kts | 38° |
| 2026-05-04 07:05 | 50.10578 | 14.25793 | 1188 ft | 5 kts | 111° |
| 2026-05-04 07:05 | 50.10557 | 14.25849 | 1188 ft | 7 kts | 127° |
| 2026-05-04 07:05 | 50.10524 | 14.25927 | 1188 ft | 10 kts | 112° |
| 2026-05-04 07:05 | 50.10525 | 14.26047 | 1187 ft | 12 kts | 78° |
| 2026-05-04 07:06 | 50.10521 | 14.26278 | 1183 ft | 15 kts | 122° |
| 2026-05-04 07:06 | 50.10459 | 14.26418 | 1183 ft | 17 kts | 125° |
| 2026-05-04 07:06 | 50.10415 | 14.26507 | 1184 ft | 10 kts | 137° |
| 2026-05-04 07:07 | 50.10367 | 14.26606 | 1185 ft | 9 kts | 124° |
| 2026-05-04 07:08 | 50.10390 | 14.26688 | 1184 ft | 0 kts | 34° |